createdAt,value
2023-04-21T00:01:58.884Z,100268.81
2023-04-21T00:04:25.696Z,100268.03
2023-04-21T00:06:56.993Z,100274.66
2023-04-21T00:09:23.541Z,100274.97
2023-04-21T00:11:54.587Z,100274.72
2023-04-21T00:14:21.364Z,100283.50
2023-04-21T00:16:52.386Z,100280.00
2023-04-21T00:19:23.882Z,100270.81
2023-04-21T00:21:58.511Z,100265.88
2023-04-21T00:24:25.988Z,100270.16
2023-04-21T00:26:54.669Z,100271.25
2023-04-21T00:29:21.309Z,100269.09
2023-04-21T00:31:48.285Z,100270.47
2023-04-21T00:34:14.966Z,100265.25
2023-04-21T00:36:41.460Z,100265.53
2023-04-21T00:39:07.920Z,100261.03
2023-04-21T00:41:36.099Z,100260.19
2023-04-21T00:44:10.259Z,100263.25
2023-04-21T00:46:38.545Z,100258.84
2023-04-21T00:49:06.958Z,100264.22
2023-04-21T00:51:35.044Z,100263.41
2023-04-21T00:54:06.820Z,100264.75
2023-04-21T00:56:34.892Z,100259.53
2023-04-21T00:59:04.274Z,100256.22
2023-04-21T01:01:34.346Z,100254.44
2023-04-21T01:04:01.530Z,100248.28
2023-04-21T01:06:29.627Z,100248.13
2023-04-21T01:08:56.340Z,100235.81
2023-04-21T01:11:22.702Z,100237.44
2023-04-21T01:13:53.296Z,100246.22
2023-04-21T01:16:21.598Z,100247.84
2023-04-21T01:18:48.102Z,100244.94
2023-04-21T01:21:19.078Z,100243.31
2023-04-21T01:23:46.109Z,100238.50
2023-04-21T01:26:17.213Z,100241.53
2023-04-21T01:28:44.116Z,100231.97
2023-04-21T01:31:10.640Z,100235.03
2023-04-21T01:33:42.143Z,100230.78
2023-04-21T01:36:09.719Z,100236.31
2023-04-21T01:38:42.556Z,100229.16
2023-04-21T01:41:12.550Z,100239.03
2023-04-21T01:43:39.227Z,100241.41
2023-04-21T01:46:06.573Z,100245.94
2023-04-21T01:48:33.105Z,100240.72
2023-04-21T01:50:59.559Z,100244.63
2023-04-21T01:53:26.891Z,100246.34
2023-04-21T01:55:53.330Z,100244.56
2023-04-21T01:58:22.863Z,100235.81
2023-04-21T02:00:49.434Z,100242.84
2023-04-21T02:03:16.216Z,100244.75
2023-04-21T02:05:42.770Z,100243.78
2023-04-21T02:08:09.258Z,100248.34
2023-04-21T02:10:35.806Z,100251.72
2023-04-21T02:13:02.289Z,100243.66
2023-04-21T02:15:31.435Z,100245.31
2023-04-21T02:17:58.051Z,100253.81
2023-04-21T02:20:24.553Z,100251.78
2023-04-21T02:22:50.928Z,100244.50
2023-04-21T02:25:17.367Z,100251.53
2023-04-21T02:27:43.732Z,100255.50
2023-04-21T02:30:11.145Z,100248.94
2023-04-21T02:32:38.133Z,100250.03
2023-04-21T02:35:08.232Z,100256.34
2023-04-21T02:37:34.786Z,100258.00
2023-04-21T02:40:03.709Z,100256.34
2023-04-21T02:42:30.290Z,100253.34
2023-04-21T02:44:59.315Z,100252.38
2023-04-21T02:47:26.097Z,100256.88
2023-04-21T02:49:52.653Z,100258.13
2023-04-21T02:52:19.337Z,100257.47
2023-04-21T02:54:45.807Z,100263.59
2023-04-21T02:57:12.302Z,100254.84
2023-04-21T02:59:38.694Z,100255.13
2023-04-21T03:02:05.169Z,100248.94
2023-04-21T03:04:32.400Z,100248.78
2023-04-21T03:07:01.685Z,100247.16
2023-04-21T03:09:30.487Z,100242.91
2023-04-21T03:11:59.330Z,100240.97
2023-04-21T03:14:33.687Z,100244.00
2023-04-21T03:17:00.182Z,100251.53
2023-04-21T03:19:26.728Z,100244.25
2023-04-21T03:21:53.169Z,100254.16
2023-04-21T03:24:19.655Z,100241.53
2023-04-21T03:26:48.304Z,100238.22
2023-04-21T03:29:18.070Z,100243.84
2023-04-21T03:31:44.963Z,100240.41
2023-04-21T03:34:13.911Z,100250.00
2023-04-21T03:36:40.578Z,100246.59
2023-04-21T03:39:19.090Z,100247.94
2023-04-21T03:41:46.396Z,100240.41
2023-04-21T03:44:12.759Z,100241.53
2023-04-21T03:46:39.112Z,100239.06
2023-04-21T03:49:05.621Z,100248.22
2023-04-21T03:51:32.424Z,100245.06
2023-04-21T03:54:01.154Z,100251.00
2023-04-21T03:56:27.634Z,100245.50
2023-04-21T03:58:56.575Z,100249.91
2023-04-21T04:01:23.010Z,100235.75
2023-04-21T04:03:49.647Z,100245.50
2023-04-21T04:06:16.310Z,100239.75
2023-04-21T04:08:42.650Z,100237.44
2023-04-21T04:11:11.541Z,100237.69
2023-04-21T04:13:38.015Z,100235.09
2023-04-21T04:16:07.258Z,100242.91
2023-04-21T04:18:33.850Z,100238.78
2023-04-21T04:21:08.289Z,100241.38
2023-04-21T04:23:35.482Z,100238.50
2023-04-21T04:26:04.529Z,100245.88
2023-04-21T04:28:33.698Z,100248.50
2023-04-21T04:31:00.761Z,100249.31
2023-04-21T04:33:27.403Z,100244.13
2023-04-21T04:35:54.604Z,100234.75
2023-04-21T04:38:23.056Z,100238.31
2023-04-21T04:40:57.447Z,100245.19
2023-04-21T04:43:25.433Z,100234.22
2023-04-21T04:45:54.479Z,100235.69
2023-04-21T04:48:20.910Z,100241.06
2023-04-21T04:50:47.562Z,100242.31
2023-04-21T04:53:14.034Z,100252.47
2023-04-21T04:55:40.619Z,100254.22
2023-04-21T04:58:07.118Z,100242.91
2023-04-21T05:00:33.503Z,100253.56
2023-04-21T05:03:00.016Z,100253.16
2023-04-21T05:05:26.585Z,100240.81
2023-04-21T05:07:55.523Z,100246.31
2023-04-21T05:10:21.941Z,100253.72
2023-04-21T05:12:50.601Z,100260.16
2023-04-21T05:15:18.391Z,100259.34
2023-04-21T05:17:44.787Z,100268.44
2023-04-21T05:20:11.734Z,100258.13
2023-04-21T05:22:38.514Z,100261.56
2023-04-21T05:25:10.312Z,100266.50
2023-04-21T05:27:36.776Z,100267.88
2023-04-21T05:30:03.280Z,100262.25
2023-04-21T05:32:29.751Z,100265.81
2023-04-21T05:34:56.215Z,100268.00
2023-04-21T05:37:22.594Z,100271.28
2023-04-21T05:39:48.957Z,100271.56
2023-04-21T05:42:15.708Z,100279.22
2023-04-21T05:44:42.078Z,100276.75
2023-04-21T05:47:08.517Z,100272.47
2023-04-21T05:49:35.105Z,100277.38
2023-04-21T05:52:01.497Z,100273.53
2023-04-21T05:54:27.912Z,100274.66
2023-04-21T05:56:54.291Z,100289.44
2023-04-21T05:59:20.774Z,100288.88
2023-04-21T06:01:50.113Z,100289.28
2023-04-21T06:04:22.345Z,100288.03
2023-04-21T06:06:49.050Z,100288.09
2023-04-21T06:09:17.858Z,100298.84
2023-04-21T06:11:44.364Z,100290.16
2023-04-21T06:14:10.844Z,100296.97
2023-04-21T06:16:37.255Z,100308.38
2023-04-21T06:19:03.807Z,100300.91
2023-04-21T06:21:30.804Z,100296.66
2023-04-21T06:23:57.313Z,100304.13
2023-04-21T06:26:23.836Z,100300.75
2023-04-21T06:28:50.381Z,100301.16
2023-04-21T06:31:17.700Z,100298.38
2023-04-21T06:33:44.270Z,100298.72
2023-04-21T06:36:10.741Z,100291.97
2023-04-21T06:38:37.333Z,100298.06
2023-04-21T06:41:04.647Z,100301.31
2023-04-21T06:43:31.236Z,100298.00
2023-04-21T06:46:02.649Z,100299.63
2023-04-21T06:48:30.348Z,100300.50
2023-04-21T06:50:56.925Z,100300.81
2023-04-21T06:53:23.530Z,100302.66
2023-04-21T06:55:53.391Z,100295.59
2023-04-21T06:58:22.087Z,100284.69
2023-04-21T07:00:48.589Z,100290.38
2023-04-21T07:03:17.979Z,100295.50
2023-04-21T07:05:44.599Z,100289.31
2023-04-21T07:08:11.015Z,100285.72
2023-04-21T07:10:37.477Z,100284.28
2023-04-21T07:13:04.027Z,100281.38
2023-04-21T07:15:32.643Z,100277.25
2023-04-21T07:17:59.231Z,100279.25
2023-04-21T07:20:25.927Z,100285.03
2023-04-21T07:22:54.977Z,100276.66
2023-04-21T07:25:21.563Z,100275.81
2023-04-21T07:27:48.017Z,100272.28
2023-04-21T07:30:14.770Z,100273.16
2023-04-21T07:32:41.283Z,100277.56
2023-04-21T07:35:08.365Z,100284.72
2023-04-21T07:37:35.012Z,100285.75
2023-04-21T07:40:01.610Z,100281.72
2023-04-21T07:42:28.202Z,100280.44
2023-04-21T07:44:56.165Z,100274.63
2023-04-21T07:47:22.596Z,100274.44
2023-04-21T07:49:49.130Z,100270.31
2023-04-21T07:52:15.585Z,100266.19
2023-04-21T07:54:44.363Z,100263.41
2023-04-21T07:57:11.300Z,100258.31
2023-04-21T07:59:37.993Z,100259.63
2023-04-21T08:02:04.807Z,100262.72
2023-04-21T08:04:31.530Z,100248.97
2023-04-21T08:07:00.836Z,100250.25
2023-04-21T08:09:28.046Z,100253.47
2023-04-21T08:11:55.313Z,100243.28
2023-04-21T08:14:22.106Z,100247.22
2023-04-21T08:16:51.349Z,100247.47
2023-04-21T08:19:18.066Z,100243.63
2023-04-21T08:21:44.622Z,100247.50
2023-04-21T08:24:11.177Z,100239.69
2023-04-21T08:26:37.698Z,100243.38
2023-04-21T08:29:07.029Z,100231.38
2023-04-21T08:31:33.896Z,100240.25
2023-04-21T08:34:03.057Z,100234.25
2023-04-21T08:36:30.770Z,100236.59
2023-04-21T08:39:00.250Z,100229.81
2023-04-21T08:41:27.094Z,100236.81
2023-04-21T08:43:55.918Z,100231.66
2023-04-21T08:46:23.153Z,100240.19
2023-04-21T08:48:49.855Z,100230.38
2023-04-21T08:51:22.984Z,100229.59
2023-04-21T08:53:49.726Z,100229.41
2023-04-21T08:56:18.327Z,100218.88
2023-04-21T08:58:47.154Z,100220.25
2023-04-21T09:01:13.864Z,100217.28
2023-04-21T09:03:40.675Z,100206.38
2023-04-21T09:06:09.755Z,100201.19
2023-04-21T09:08:43.687Z,100209.44
2023-04-21T09:11:14.385Z,100200.28
2023-04-21T09:13:43.145Z,100196.16
2023-04-21T09:16:23.681Z,100195.94
2023-04-21T09:18:51.340Z,100191.03
2023-04-21T09:21:19.667Z,100180.66
2023-04-21T09:23:53.493Z,100173.03
2023-04-21T09:26:23.075Z,100174.06
2023-04-21T09:28:51.115Z,100180.88
2023-04-21T09:31:21.881Z,100170.84
2023-04-21T09:36:28.143Z,100174.00
2023-04-21T09:39:08.934Z,100172.78
2023-04-21T09:41:41.418Z,100172.78
2023-04-21T09:44:10.176Z,100170.44
2023-04-21T09:46:37.391Z,100178.72
2023-04-21T09:49:04.876Z,100169.06
2023-04-21T09:52:05.271Z,100166.28
2023-04-21T09:54:29.672Z,100168.75
2023-04-21T09:56:59.807Z,100163.06
2023-04-21T09:59:32.970Z,100154.28
2023-04-21T10:02:00.616Z,100159.63
2023-04-21T10:04:31.262Z,100148.00
2023-04-21T10:07:00.967Z,100140.75
2023-04-21T10:09:50.793Z,100150.31
2023-04-21T10:12:18.447Z,100140.34
2023-04-21T10:14:44.921Z,100146.38
2023-04-21T10:17:11.512Z,100143.34
2023-04-21T10:19:47.638Z,100141.66
2023-04-21T10:22:14.094Z,100145.78
2023-04-21T10:24:42.181Z,100137.50
2023-04-21T10:27:12.980Z,100139.94
2023-04-21T10:29:54.724Z,100137.22
2023-04-21T10:32:41.363Z,100140.34
2023-04-21T10:35:13.548Z,100129.75
2023-04-21T10:37:42.460Z,100121.53
2023-04-21T10:40:44.166Z,100122.72
2023-04-21T10:43:42.550Z,100121.19
2023-04-21T10:46:40.305Z,100111.59
2023-04-21T10:49:08.062Z,100108.34
2023-04-21T10:52:03.180Z,100108.34
2023-04-21T10:54:36.968Z,100102.06
2023-04-21T10:57:07.738Z,100100.19
2023-04-21T10:59:35.067Z,100095.72
2023-04-21T11:02:08.940Z,100086.50
2023-04-21T11:04:35.960Z,100082.69
2023-04-21T11:07:13.325Z,100066.25
2023-04-21T11:09:41.626Z,100075.06
2023-04-21T11:12:14.538Z,100065.09
2023-04-21T11:14:47.789Z,100063.34
2023-04-21T11:17:16.404Z,100067.28
2023-04-21T11:19:52.555Z,100061.38
2023-04-21T11:22:24.250Z,100061.50
2023-04-21T11:24:54.385Z,100061.38
2023-04-21T11:27:22.320Z,100070.28
2023-04-21T11:29:52.307Z,100057.69
2023-04-21T11:32:19.206Z,100054.03
2023-04-21T11:34:45.831Z,100046.81
2023-04-21T11:37:20.895Z,100043.38
2023-04-21T11:39:47.346Z,100041.88
2023-04-21T11:42:21.164Z,100040.56
2023-04-21T11:44:47.566Z,100029.81
2023-04-21T11:47:22.874Z,100029.44
2023-04-21T11:50:01.470Z,100021.44
2023-04-21T11:52:30.944Z,100021.31
2023-04-21T11:55:01.786Z,100030.56
2023-04-21T11:57:32.560Z,100021.78
2023-04-21T12:00:00.916Z,100022.19
2023-04-21T12:02:32.818Z,100023.97
2023-04-21T12:05:05.214Z,100024.56
2023-04-21T12:07:58.305Z,100018.06
2023-04-21T12:10:24.694Z,100023.44
2023-04-21T12:12:51.764Z,100022.88
2023-04-21T12:15:21.367Z,100026.75
2023-04-21T12:17:52.447Z,100019.28
2023-04-21T12:20:22.256Z,100021.28
2023-04-21T12:22:53.954Z,100019.91
2023-04-21T12:25:20.378Z,100034.81
2023-04-21T12:27:50.935Z,100027.28
2023-04-21T12:30:18.088Z,100028.56
2023-04-21T12:32:44.648Z,100011.66
2023-04-21T12:35:14.257Z,100021.66
2023-04-21T12:37:41.005Z,100022.03
2023-04-21T12:40:08.152Z,100015.63
2023-04-21T12:42:37.240Z,100012.19
2023-04-21T12:45:07.225Z,100010.22
2023-04-21T12:47:34.603Z,100006.31
2023-04-21T12:50:01.291Z,100008.84
2023-04-21T12:52:30.312Z,99999.75
2023-04-21T12:54:56.659Z,99998.66
2023-04-21T12:57:23.121Z,100000.63
2023-04-21T12:59:49.570Z,99999.31
2023-04-21T13:02:18.787Z,100006.47
2023-04-21T13:04:45.348Z,100014.03
2023-04-21T13:07:12.091Z,100010.56
2023-04-21T13:09:38.725Z,100001.63
2023-04-21T13:12:07.894Z,99992.94
2023-04-21T13:14:37.343Z,100003.84
2023-04-21T13:17:06.346Z,100005.00
2023-04-21T13:19:33.238Z,99997.25
2023-04-21T13:22:00.116Z,100003.94
2023-04-21T13:24:26.798Z,99990.38
2023-04-21T13:26:56.046Z,99985.81
2023-04-21T13:29:29.289Z,99993.78
2023-04-21T13:31:56.891Z,99984.66
2023-04-21T13:34:23.284Z,99977.25
2023-04-21T13:36:50.604Z,99981.19
2023-04-21T13:39:17.201Z,99980.13
2023-04-21T13:41:43.680Z,99980.34
2023-04-21T13:44:10.110Z,99978.38
2023-04-21T13:46:37.969Z,99974.84
2023-04-21T13:49:04.528Z,99962.41
2023-04-21T13:51:32.195Z,99962.69
2023-04-21T13:53:58.691Z,99960.47
2023-04-21T13:56:25.499Z,99965.47
2023-04-21T13:58:52.031Z,99965.06
2023-04-21T14:01:20.670Z,99963.91
2023-04-21T14:03:50.747Z,99955.13
2023-04-21T14:06:17.493Z,99962.13
2023-04-21T14:08:46.117Z,99953.69
2023-04-21T14:11:14.980Z,99952.41
2023-04-21T14:13:48.055Z,99944.06
2023-04-21T14:16:26.659Z,99933.34
2023-04-21T14:18:53.580Z,99933.19
2023-04-21T14:21:19.990Z,99924.47
2023-04-21T14:23:46.598Z,99920.19
2023-04-21T14:26:13.310Z,99913.84
2023-04-21T14:28:42.498Z,99903.41
2023-04-21T14:31:09.231Z,99901.25
2023-04-21T14:33:35.896Z,99886.34
2023-04-21T14:36:02.371Z,99880.47
2023-04-21T14:38:30.594Z,99877.69
2023-04-21T14:40:57.198Z,99881.50
2023-04-21T14:43:23.736Z,99875.19
2023-04-21T14:45:50.336Z,99881.84
2023-04-21T14:48:17.278Z,99877.59
2023-04-21T14:50:43.952Z,99880.69
2023-04-21T14:53:10.952Z,99887.22
2023-04-21T14:55:44.533Z,99874.50
2023-04-21T14:58:10.945Z,99864.25
2023-04-21T15:00:38.889Z,99868.72
2023-04-21T15:03:07.897Z,99867.09
2023-04-21T15:05:36.851Z,99863.28
2023-04-21T15:08:03.532Z,99857.66
2023-04-21T15:10:32.197Z,99860.13
2023-04-21T15:12:58.921Z,99857.13
2023-04-21T15:15:25.612Z,99847.44
2023-04-21T15:17:54.609Z,99855.50
2023-04-21T15:20:32.550Z,99858.84
2023-04-21T15:23:07.742Z,99856.44
2023-04-21T15:25:36.223Z,99850.31
2023-04-21T15:28:05.056Z,99858.97
2023-04-21T15:30:31.508Z,99855.91
2023-04-21T15:32:57.969Z,99855.50
2023-04-21T15:35:24.538Z,99857.31
2023-04-21T15:37:53.331Z,99857.31
2023-04-21T15:40:19.800Z,99860.22
2023-04-21T15:42:46.330Z,99852.47
2023-04-21T15:45:12.816Z,99856.13
2023-04-21T15:47:39.511Z,99849.34
2023-04-21T15:50:06.658Z,99857.38
2023-04-21T15:52:36.136Z,99860.25
2023-04-21T15:55:02.721Z,99848.06
2023-04-21T15:57:29.736Z,99848.41
2023-04-21T15:59:58.508Z,99845.03
2023-04-21T16:02:25.121Z,99840.88
2023-04-21T16:04:52.121Z,99838.44
2023-04-21T16:07:18.799Z,99842.44
2023-04-21T16:09:45.231Z,99841.63
2023-04-21T16:12:11.675Z,99840.91
2023-04-21T16:14:55.259Z,99834.88
2023-04-21T16:17:26.513Z,99842.38
2023-04-21T16:19:53.829Z,99840.28
2023-04-21T16:22:20.398Z,99848.72
2023-04-21T16:24:47.117Z,99870.75
2023-04-21T16:27:13.663Z,99901.59
2023-04-21T16:29:40.103Z,99901.59
2023-04-21T16:32:06.984Z,99905.47
2023-04-21T16:34:33.705Z,99917.34
2023-04-21T16:37:00.589Z,99911.50
2023-04-21T16:39:27.651Z,99916.22
2023-04-21T16:41:54.164Z,99914.53
2023-04-21T16:44:22.887Z,99906.41
2023-04-21T16:46:49.436Z,99895.41
2023-04-21T16:49:16.077Z,99881.03
2023-04-21T16:51:44.889Z,99869.53
2023-04-21T16:54:16.420Z,99861.09
2023-04-21T16:56:45.791Z,99837.91
2023-04-21T16:59:12.156Z,99826.56
2023-04-21T17:01:38.612Z,99815.38
2023-04-21T17:04:05.168Z,99818.25
2023-04-21T17:06:34.239Z,99832.38
2023-04-21T17:09:00.619Z,99837.09
2023-04-21T17:11:31.281Z,99848.72
2023-04-21T17:13:57.837Z,99841.38
2023-04-21T17:16:26.927Z,99828.75
2023-04-21T17:18:54.806Z,99829.34
2023-04-21T17:21:21.163Z,99825.47
2023-04-21T17:23:47.670Z,99826.25
2023-04-21T17:26:15.126Z,99822.38
2023-04-21T17:28:43.896Z,99826.19
2023-04-21T17:31:15.783Z,99834.50
2023-04-21T17:34:04.164Z,99836.81
2023-04-21T17:36:30.953Z,99831.56
2023-04-21T17:38:58.266Z,99827.22
2023-04-21T17:41:27.649Z,99833.97
2023-04-21T17:43:57.204Z,99844.03
2023-04-21T17:46:25.351Z,99838.47
2023-04-21T17:48:54.531Z,99841.81
2023-04-21T17:51:21.173Z,99836.94
2023-04-21T17:53:47.831Z,99842.84
2023-04-21T17:56:14.495Z,99830.66
2023-04-21T17:59:00.062Z,99826.53
2023-04-21T18:01:26.898Z,99836.22
2023-04-21T18:03:57.033Z,99823.66
2023-04-21T18:06:27.401Z,99827.31
2023-04-21T18:08:56.276Z,99821.81
2023-04-21T18:11:23.066Z,99807.72
2023-04-21T18:13:49.619Z,99808.28
2023-04-21T18:16:16.399Z,99821.56
2023-04-21T18:18:42.798Z,99823.38
2023-04-21T18:21:13.872Z,99808.56
2023-04-21T18:23:40.363Z,99822.44
2023-04-21T18:26:07.701Z,99829.53
2023-04-21T18:28:36.766Z,99864.63
2023-04-21T18:31:03.529Z,99887.47
2023-04-21T18:33:34.595Z,99883.22
2023-04-21T18:36:01.331Z,99887.06
2023-04-21T18:38:27.725Z,99891.72
2023-04-21T18:40:56.390Z,99888.44
2023-04-21T18:43:25.447Z,99892.97
2023-04-21T18:45:53.980Z,99892.50
2023-04-21T18:48:22.811Z,99883.78
2023-04-21T18:50:49.242Z,99887.88
2023-04-21T18:53:15.713Z,99890.34
2023-04-21T18:55:42.055Z,99889.72
2023-04-21T18:58:14.786Z,99890.75
2023-04-21T19:00:41.242Z,99886.88
2023-04-21T19:03:11.085Z,99890.13
2023-04-21T19:05:40.667Z,99906.06
2023-04-21T19:08:09.569Z,99893.91
2023-04-21T19:10:37.684Z,99892.31
2023-04-21T19:13:04.441Z,99906.75
2023-04-21T19:15:31.001Z,99906.09
2023-04-21T19:17:57.607Z,99902.47
2023-04-21T19:20:24.027Z,99903.75
2023-04-21T19:22:50.862Z,99899.91
2023-04-21T19:25:17.570Z,99892.19
2023-04-21T19:27:44.597Z,99898.34
2023-04-21T19:30:16.118Z,99900.81
2023-04-21T19:32:42.551Z,99910.19
2023-04-21T19:35:09.371Z,99907.75
2023-04-21T19:37:36.257Z,99901.03
2023-04-21T19:40:03.355Z,99902.66
2023-04-21T19:42:30.432Z,99913.22
2023-04-21T19:44:56.943Z,99915.28
2023-04-21T19:47:23.301Z,99922.41
2023-04-21T19:49:49.818Z,99910.19
2023-04-21T19:52:18.496Z,99912.22
2023-04-21T19:54:44.911Z,99914.47
2023-04-21T19:57:11.345Z,99904.53
2023-04-21T19:59:38.225Z,99911.22
2023-04-21T20:02:05.124Z,99906.16
2023-04-21T20:04:32.120Z,99914.88
2023-04-21T20:06:58.831Z,99915.50
2023-04-21T20:09:25.308Z,99905.91
2023-04-21T20:11:51.703Z,99913.66
2023-04-21T20:14:18.858Z,99915.50
2023-04-21T20:16:46.447Z,99920.56
2023-04-21T20:19:17.229Z,99908.78
2023-04-21T20:21:44.167Z,99918.34
2023-04-21T20:24:10.520Z,99903.28
2023-04-21T20:26:37.147Z,99912.47
2023-04-21T20:29:04.041Z,99911.03
2023-04-21T20:31:30.471Z,99913.84
2023-04-21T20:33:56.900Z,99918.34
2023-04-21T20:36:23.400Z,99906.34
2023-04-21T20:38:50.569Z,99912.47
2023-04-21T20:41:24.173Z,99913.84
2023-04-21T20:43:54.055Z,99915.69
2023-04-21T20:46:20.443Z,99917.13
2023-04-21T20:48:47.005Z,99912.66
2023-04-21T20:51:13.491Z,99908.56
2023-04-21T20:53:42.665Z,99908.16
2023-04-21T20:56:11.666Z,99912.88
2023-04-21T20:58:43.218Z,99904.31
2023-04-21T21:01:09.751Z,99904.72
2023-04-21T21:03:38.953Z,99906.97
2023-04-21T21:06:05.788Z,99904.53
2023-04-21T21:08:32.191Z,99907.75
2023-04-21T21:10:58.612Z,99905.13
2023-04-21T21:13:25.086Z,99904.94
2023-04-21T21:15:52.144Z,99903.91
2023-04-21T21:18:21.258Z,99903.69
2023-04-21T21:20:49.933Z,99904.53
2023-04-21T21:23:16.271Z,99908.56
2023-04-21T21:25:42.709Z,99907.75
2023-04-21T21:28:11.564Z,99913.03
2023-04-21T21:30:37.897Z,99912.03
2023-04-21T21:33:04.345Z,99917.94
2023-04-21T21:35:30.911Z,99915.69
2023-04-21T21:37:57.355Z,99915.09
2023-04-21T21:40:23.875Z,99920.78
2023-04-21T21:42:51.313Z,99922.19
2023-04-21T21:45:17.777Z,99924.41
2023-04-21T21:47:45.843Z,99925.22
2023-04-21T21:50:12.582Z,99928.03
2023-04-21T21:52:39.101Z,99922.56
2023-04-21T21:55:06.377Z,99919.72
2023-04-21T21:57:32.917Z,99924.59
2023-04-21T22:00:02.339Z,99920.72
2023-04-21T22:02:29.126Z,99919.69
2023-04-21T22:04:56.347Z,99923.16
2023-04-21T22:07:25.090Z,99923.34
2023-04-21T22:09:51.807Z,99929.63
2023-04-21T22:12:23.160Z,99921.94
2023-04-21T22:14:49.618Z,99919.06
2023-04-21T22:17:15.993Z,99927.22
2023-04-21T22:19:42.432Z,99927.38
2023-04-21T22:22:08.918Z,99923.13
2023-04-21T22:24:35.381Z,99921.09
2023-04-21T22:27:04.505Z,99921.94
2023-04-21T22:29:31.115Z,99920.84
2023-04-21T22:31:58.057Z,99924.97
2023-04-21T22:34:24.512Z,99929.88
2023-04-21T22:36:52.011Z,99928.38
2023-04-21T22:39:18.444Z,99923.34
2023-04-21T22:41:45.646Z,99929.25
2023-04-21T22:44:15.208Z,99933.72
2023-04-21T22:46:41.783Z,99916.44
2023-04-21T22:49:09.116Z,99921.72
2023-04-21T22:51:36.357Z,99925.78
2023-04-21T22:54:03.230Z,99921.09
2023-04-21T22:56:31.956Z,99918.69
2023-04-21T22:58:58.502Z,99930.66
2023-04-21T23:01:25.277Z,99925.94
2023-04-21T23:03:51.874Z,99925.97
2023-04-21T23:06:18.321Z,99918.84
2023-04-21T23:08:44.966Z,99923.56
2023-04-21T23:11:13.793Z,99920.72
2023-04-21T23:13:40.532Z,99924.19
2023-04-21T23:16:07.248Z,99914.00
2023-04-21T23:18:36.206Z,99901.63
2023-04-21T23:21:02.575Z,99899.97
2023-04-21T23:23:29.054Z,99906.50
2023-04-21T23:25:55.485Z,99898.19
2023-04-21T23:28:21.965Z,99904.25
2023-04-21T23:30:48.506Z,99900.63
2023-04-21T23:33:15.018Z,99894.91
2023-04-21T23:35:41.461Z,99898.38
2023-04-21T23:38:07.935Z,99898.19
2023-04-21T23:40:34.305Z,99895.72
2023-04-21T23:43:05.673Z,99895.69
2023-04-21T23:45:32.288Z,99899.38
2023-04-21T23:48:01.216Z,99885.78
2023-04-21T23:50:27.660Z,99890.19
2023-04-21T23:52:54.021Z,99894.66
2023-04-21T23:55:20.593Z,99892.25
2023-04-21T23:57:47.035Z,99892.63
